Time;durP1;ratioP1;P1;durP2;ratioP2;P2;SDS_P1;SDS_P2;PMS_P1;PMS_P2;Temp;Humidity;BMP_temperature;BMP_pressure;BME280_temperature;BME280_humidity;BME280_pressure;Samples;Min_cycle;Max_cycle;Signal;HPM_P1;HPM_P2
2023/05/19 03:57:17;;;;;;;9.43;6.00;;;;;;;14.16;98.73;101149.97;5606089;31;80333;-56
2023/05/19 04:00:21;;;;;;;7.50;5.68;;;;;;;14.16;98.73;101149.97;5583861;31;33184;-56
2023/05/19 04:03:25;;;;;;;11.70;5.70;;;;;;;13.75;100.00;101155.72;5583185;32;33503;-56
2023/05/19 04:06:27;;;;;;;10.18;5.57;;;;;;;13.76;98.31;101160.03;5583699;31;34252;-57
2023/05/19 04:09:34;;;;;;;9.82;5.62;;;;;;;13.80;99.39;101163.75;5583045;31;33446;-57
2023/05/19 04:12:36;;;;;;;;;;;;;;;13.92;98.15;101163.41;5583618;31;33630;-56
2023/05/19 04:15:39;;;;;;;9.80;5.25;;;;;;;13.95;98.11;101172.81;5583067;31;34562;-56
2023/05/19 04:18:44;;;;;;;8.90;4.80;;;;;;;13.93;99.83;101169.59;5583609;32;33208;-57
2023/05/19 04:21:47;;;;;;;9.63;5.43;;;;;;;13.96;100.00;101179.81;5583391;31;34292;-57
2023/05/19 04:24:51;;;;;;;7.53;5.28;;;;;;;14.05;100.00;101176.22;5582673;31;34367;-56
2023/05/19 04:27:56;;;;;;;5.45;4.47;;;;;;;14.06;100.00;101175.13;5583254;31;33716;-57
2023/05/19 04:30:59;;;;;;;6.30;4.63;;;;;;;14.17;97.73;101170.47;5582690;31;34771;-57
2023/05/19 04:34:01;;;;;;;6.35;5.20;;;;;;;14.15;100.00;101177.22;5582733;32;33672;-56
2023/05/19 04:37:05;;;;;;;8.32;4.90;;;;;;;14.20;100.00;101169.88;5582859;32;34449;-56
2023/05/19 04:40:09;;;;;;;8.77;4.80;;;;;;;14.20;99.83;101180.66;5583157;31;34431;-56
2023/05/19 04:43:12;;;;;;;11.00;5.25;;;;;;;14.38;95.82;101184.53;5582483;31;33566;-56
2023/05/19 04:46:15;;;;;;;10.93;5.60;;;;;;;14.42;95.56;101184.75;5580880;31;33290;-56
2023/05/19 04:49:18;;;;;;;7.97;5.25;;;;;;;14.32;94.74;101183.78;5563184;32;33533;-57
2023/05/19 04:52:21;;;;;;;6.85;5.60;;;;;;;14.34;95.25;101188.91;5563666;32;33562;-56
2023/05/19 04:55:24;;;;;;;9.48;5.18;;;;;;;14.34;95.22;101191.59;5563054;32;31814;-56
2023/05/19 04:58:27;;;;;;;9.48;5.65;;;;;;;14.41;95.86;101196.66;5563210;32;33519;-56
2023/05/19 05:01:31;;;;;;;7.47;5.55;;;;;;;14.34;95.31;101191.59;5563352;32;33768;-56
2023/05/19 05:04:35;;;;;;;9.68;6.10;;;;;;;14.32;95.83;101193.75;5562883;32;31663;-56
2023/05/19 05:07:38;;;;;;;9.70;5.40;;;;;;;14.36;98.17;101185.91;5554934;32;33580;-57
2023/05/19 05:10:41;;;;;;;9.18;6.22;;;;;;;14.70;100.00;101205.53;5550045;32;34386;-57
2023/05/19 05:13:43;;;;;;;10.98;6.40;;;;;;;14.89;100.00;101205.56;5549969;32;33081;-57
2023/05/19 05:16:46;;;;;;;13.48;7.45;;;;;;;14.99;100.00;101210.03;5549606;32;34176;-57
2023/05/19 05:19:50;;;;;;;9.45;6.65;;;;;;;14.89;97.95;101193.97;5550098;32;33370;-57
2023/05/19 05:22:52;;;;;;;9.98;8.50;;;;;;;14.92;97.72;101205.00;5549553;32;33427;-57
2023/05/19 05:25:55;;;;;;;10.88;8.27;;;;;;;14.89;93.08;101208.25;5549859;32;33635;-57
2023/05/19 05:28:58;;;;;;;10.30;8.02;;;;;;;14.84;93.12;101213.75;5549685;32;34086;-57
2023/05/19 05:32:00;;;;;;;12.95;8.45;;;;;;;15.01;92.26;101222.16;5549765;32;33626;-57
2023/05/19 05:35:04;;;;;;;11.30;8.45;;;;;;;14.98;94.47;101211.12;5549127;32;33279;-57
2023/05/19 05:38:06;;;;;;;11.40;8.32;;;;;;;15.14;96.90;101212.56;5549642;32;33433;-57
2023/05/19 05:41:10;;;;;;;11.70;7.57;;;;;;;15.17;97.41;101203.06;5549500;32;33717;-57
2023/05/19 05:44:12;;;;;;;10.00;8.57;;;;;;;15.22;96.11;101213.78;5549766;32;34501;-57
2023/05/19 05:47:15;;;;;;;11.88;8.60;;;;;;;15.40;97.92;101212.22;5549415;32;32132;-61
2023/05/19 05:50:19;;;;;;;11.18;7.97;;;;;;;15.64;92.90;101206.72;5549420;32;31706;-57
2023/05/19 05:53:24;;;;;;;9.77;8.18;;;;;;;15.61;92.30;101205.41;5548967;32;34251;-57
2023/05/19 05:56:27;;;;;;;12.82;8.05;;;;;;;15.64;90.47;101206.72;5549485;32;34010;-57
2023/05/19 05:59:29;;;;;;;9.82;7.53;;;;;;;15.73;94.45;101213.09;5549520;32;34376;-57
2023/05/19 06:02:32;;;;;;;13.70;8.45;;;;;;;15.70;93.29;101211.00;5549765;32;33604;-57
2023/05/19 06:05:34;;;;;;;13.62;8.30;;;;;;;15.60;91.50;101211.12;5549382;32;33340;-57
2023/05/19 06:08:37;;;;;;;12.82;8.07;;;;;;;15.55;93.35;101214.69;5556982;32;33608;-57
2023/05/19 06:11:40;;;;;;;14.73;8.18;;;;;;;15.62;92.44;101208.91;5567878;31;33460;-57
2023/05/19 06:14:43;;;;;;;10.77;7.93;;;;;;;15.69;93.76;101220.16;5566442;32;34537;-57
2023/05/19 06:17:47;;;;;;;12.77;7.87;;;;;;;15.78;93.10;101221.13;5566369;32;32830;-57
2023/05/19 06:20:49;;;;;;;10.02;8.38;;;;;;;15.78;94.01;101217.63;5568475;32;33744;-57
2023/05/19 06:23:52;;;;;;;10.75;8.63;;;;;;;15.73;92.60;101215.81;5568700;32;33634;-57
2023/05/19 06:26:54;;;;;;;11.02;8.27;;;;;;;15.79;91.94;101227.31;5568235;32;34452;-57
2023/05/19 06:29:57;;;;;;;11.48;8.07;;;;;;;15.90;92.32;101231.50;5567952;32;33691;-57
2023/05/19 06:32:59;;;;;;;13.52;8.27;;;;;;;15.91;90.36;101224.97;5567788;32;32986;-57
2023/05/19 06:36:02;;;;;;;9.60;7.82;;;;;;;16.03;89.68;101236.16;5567603;32;33290;-57
2023/05/19 06:39:05;;;;;;;9.93;7.85;;;;;;;15.98;88.88;101237.00;5567762;31;33306;-57
2023/05/19 06:42:07;;;;;;;10.15;7.20;;;;;;;16.06;88.78;101251.78;5555746;32;33815;-58
2023/05/19 06:45:13;;;;;;;11.18;8.15;;;;;;;16.13;91.28;101246.00;5566981;32;34448;-57
2023/05/19 06:48:16;;;;;;;11.52;8.40;;;;;;;16.20;90.77;101244.50;5567097;32;33390;-57
2023/05/19 06:51:20;;;;;;;8.18;6.47;;;;;;;16.28;94.03;101247.63;5567769;32;32699;-57
2023/05/19 06:54:24;;;;;;;10.40;7.20;;;;;;;16.36;96.18;101249.66;5566695;31;33193;-58
2023/05/19 06:57:26;;;;;;;11.15;7.90;;;;;;;16.37;89.89;101252.06;5568089;32;33696;-57
2023/05/19 07:00:31;;;;;;;12.30;7.82;;;;;;;16.28;88.25;101251.13;5568555;31;33319;-57
2023/05/19 07:03:35;;;;;;;10.52;8.13;;;;;;;16.35;89.80;101262.34;5568312;31;34234;-57
2023/05/19 07:06:38;;;;;;;11.07;8.45;;;;;;;16.44;87.95;101257.06;5568681;31;34206;-57
2023/05/19 07:09:40;;;;;;;12.88;7.78;;;;;;;16.45;89.07;101253.25;5568201;32;33755;-57
2023/05/19 07:12:43;;;;;;;14.02;8.50;;;;;;;16.58;88.03;101251.69;5568346;31;33106;-57
2023/05/19 07:15:47;;;;;;;11.65;8.50;;;;;;;16.83;90.42;101253.94;5568164;32;33300;-57
2023/05/19 07:18:51;;;;;;;11.55;7.97;;;;;;;16.67;86.37;101253.41;5567830;31;31850;-57
2023/05/19 07:21:54;;;;;;;11.70;7.55;;;;;;;16.73;87.72;101258.72;5567731;32;34413;-57
2023/05/19 07:24:56;;;;;;;8.98;6.43;;;;;;;16.89;98.13;101247.31;5567011;32;33511;-57
2023/05/19 07:27:59;;;;;;;11.38;7.68;;;;;;;17.19;88.11;101236.16;5567322;32;34237;-57
2023/05/19 07:31:01;;;;;;;10.30;7.25;;;;;;;17.20;85.29;101235.06;5567241;32;34306;-58
2023/05/19 07:34:04;;;;;;;9.18;6.40;;;;;;;17.25;85.81;101229.50;5567992;32;34188;-57
2023/05/19 07:37:07;;;;;;;7.60;6.00;;;;;;;17.40;84.02;101233.81;5557775;32;33682;-57
2023/05/19 07:40:09;;;;;;;12.23;6.10;;;;;;;17.29;80.66;101234.03;5548710;32;34298;-57
2023/05/19 07:43:13;;;;;;;6.75;5.68;;;;;;;17.31;81.01;101228.31;5548318;32;34177;-57
2023/05/19 07:46:15;;;;;;;8.38;4.93;;;;;;;17.36;82.97;101231.72;5554086;32;34379;-57
2023/05/19 07:49:18;;;;;;;9.23;5.65;;;;;;;17.58;85.47;101227.41;5556444;32;33686;-57
2023/05/19 07:52:20;;;;;;;7.32;5.22;;;;;;;17.61;81.73;101229.50;5560751;32;33949;-58
2023/05/19 07:55:23;;;;;;;9.23;5.05;;;;;;;17.62;82.37;101225.72;5557199;32;33858;-58
2023/05/19 07:58:25;;;;;;;8.10;4.82;;;;;;;17.73;81.71;101223.56;5563470;32;33972;-57
2023/05/19 08:01:29;;;;;;;7.37;4.62;;;;;;;17.78;79.10;101221.56;5567140;32;33715;-57
2023/05/19 08:04:31;;;;;;;11.80;4.78;;;;;;;17.92;83.41;101218.78;5557885;32;34137;-58
2023/05/19 08:07:34;;;;;;;11.43;4.28;;;;;;;18.14;85.33;101228.00;5562220;32;34319;-58
2023/05/19 08:10:36;;;;;;;7.72;4.40;;;;;;;18.10;79.22;101221.59;5553400;32;33646;-58
2023/05/19 08:13:38;;;;;;;8.65;4.40;;;;;;;18.09;78.28;101218.09;5547841;32;33557;-57
2023/05/19 08:16:42;;;;;;;4.90;4.15;;;;;;;18.16;80.98;101207.59;5548052;32;33577;-57
2023/05/19 08:19:44;;;;;;;6.80;4.30;;;;;;;18.27;80.28;101199.97;5563052;32;34194;-58
2023/05/19 08:22:47;;;;;;;7.50;4.00;;;;;;;18.42;75.92;101206.94;5565959;32;33671;-57
2023/05/19 08:25:50;;;;;;;10.60;4.07;;;;;;;18.53;79.72;101213.69;5567267;32;32309;-57
2023/05/19 08:28:52;;;;;;;6.10;4.18;;;;;;;18.63;79.93;101210.69;5558592;32;34512;-58
2023/05/19 08:31:55;;;;;;;5.00;3.97;;;;;;;18.67;79.31;101203.50;5547515;32;33595;-58
2023/05/19 08:34:57;;;;;;;6.30;3.90;;;;;;;18.56;74.19;101202.19;5546512;32;34342;-57
2023/05/19 08:37:59;;;;;;;4.30;3.70;;;;;;;18.58;77.61;101199.19;5561425;32;33660;-58
2023/05/19 08:41:02;;;;;;;5.00;3.42;;;;;;;18.80;77.24;101196.37;5560328;32;33575;-58
2023/05/19 08:44:04;;;;;;;6.60;4.10;;;;;;;18.83;77.08;101206.63;5568040;32;34526;-58
2023/05/19 08:47:12;;;;;;;5.70;4.22;;;;;;;18.72;79.54;101205.31;5567709;31;33706;-58
2023/05/19 08:50:29;;;;;;;5.93;3.97;;;;;;;18.57;76.04;101206.50;5569346;32;33621;-58
2023/05/19 08:53:36;;;;;;;8.00;4.78;;;;;;;18.60;77.21;101203.16;5563341;31;34300;-58
2023/05/19 08:56:39;;;;;;;8.98;5.10;;;;;;;18.73;73.63;101205.00;5551613;32;34225;-58
2023/05/19 08:59:42;;;;;;;8.23;4.60;;;;;;;18.69;75.62;101197.75;5567440;32;33302;-58
2023/05/19 09:02:47;;;;;;;8.85;5.12;;;;;;;18.70;78.33;101194.72;5562641;32;33692;-57
2023/05/19 09:06:07;;;;;;;6.90;5.45;;;;;;;18.74;76.05;101195.75;5563969;32;33138;-58
2023/05/19 09:09:10;;;;;;;17.00;5.85;;;;;;;18.86;74.71;101194.31;5562633;32;33610;-57
2023/05/19 09:12:25;;;;;;;8.75;5.25;;;;;;;18.87;74.01;101196.72;5566116;32;35909;-57
2023/05/19 09:15:27;;;;;;;8.70;5.47;;;;;;;18.73;72.22;101196.84;5569048;32;33271;-58
2023/05/19 09:18:30;;;;;;;9.13;6.40;;;;;;;18.60;74.90;101200.44;5567526;32;33668;-58
2023/05/19 09:21:32;;;;;;;8.90;5.80;;;;;;;18.58;75.21;101199.19;5569394;32;33704;-58
2023/05/19 09:24:36;;;;;;;8.80;6.65;;;;;;;18.46;72.87;101200.56;5569500;32;33601;-58
2023/05/19 09:27:38;;;;;;;11.45;5.82;;;;;;;18.53;72.72;101202.81;5568940;32;34414;-57
2023/05/19 09:30:41;;;;;;;7.85;6.20;;;;;;;18.46;73.42;101200.56;5569757;32;33638;-58
2023/05/19 09:33:44;;;;;;;8.52;6.78;;;;;;;18.47;73.15;101198.63;5553738;32;33293;-57
2023/05/19 09:36:51;;;;;;;9.13;7.40;;;;;;;18.45;72.77;101195.44;5562273;32;33757;-58
2023/05/19 09:39:55;;;;;;;10.63;6.80;;;;;;;18.38;72.00;101186.97;5556285;32;33747;-58
2023/05/19 09:42:57;;;;;;;8.50;6.72;;;;;;;18.35;76.07;101191.09;5564943;32;33678;-57
2023/05/19 09:46:02;;;;;;;10.50;6.95;;;;;;;18.45;76.54;101193.53;5565983;32;33661;-57
2023/05/19 09:49:08;;;;;;;9.77;7.35;;;;;;;18.42;74.68;101187.94;5560197;32;34440;-58
2023/05/19 09:52:15;;;;;;;8.65;7.55;;;;;;;18.43;74.45;101181.38;5550306;32;33848;-58
2023/05/19 09:55:21;;;;;;;15.82;7.72;;;;;;;18.46;72.13;101186.19;5556071;32;34807;-57
2023/05/19 09:58:25;;;;;;;12.37;7.18;;;;;;;18.48;74.60;101181.25;5568871;32;34381;-58
2023/05/19 10:01:30;;;;;;;8.73;6.43;;;;;;;18.54;75.87;101178.06;5569199;32;34416;-58
2023/05/19 10:04:35;;;;;;;8.18;6.53;;;;;;;18.68;73.37;101169.81;5569009;32;33328;-57
2023/05/19 10:07:39;;;;;;;11.10;7.37;;;;;;;18.80;74.08;101168.41;5567550;32;33632;-58
2023/05/19 10:10:44;;;;;;;8.70;6.50;;;;;;;18.80;73.40;101161.06;5567604;32;33885;-58
2023/05/19 10:13:49;;;;;;;7.55;6.60;;;;;;;18.82;70.91;101156.13;5565422;32;33750;-58
2023/05/19 10:16:54;;;;;;;10.00;5.87;;;;;;;18.96;71.58;101153.28;5568836;32;34293;-56
2023/05/19 10:19:58;;;;;;;6.75;5.87;;;;;;;19.02;72.06;101157.44;5554713;32;33753;-56
2023/05/19 10:23:01;;;;;;;9.85;6.03;;;;;;;19.00;72.94;101156.94;5549286;32;33723;-56
2023/05/19 10:26:05;;;;;;;7.25;5.60;;;;;;;19.06;75.58;101157.59;5551984;32;34249;-56
2023/05/19 10:29:09;;;;;;;11.50;6.28;;;;;;;19.08;75.71;101158.87;5566890;32;33574;-56
2023/05/19 10:32:21;;;;;;;12.15;6.25;;;;;;;19.10;72.38;101158.56;5557452;32;33713;-56
2023/05/19 10:35:26;;;;;;;9.25;5.95;;;;;;;19.07;72.76;101153.75;5568652;32;33652;-56
2023/05/19 10:38:47;;;;;;;16.42;6.12;;;;;;;19.07;70.34;101151.84;5569039;32;33824;-56
2023/05/19 10:42:12;;;;;;;7.43;6.32;;;;;;;19.24;69.76;101142.91;5561476;32;32602;-56
2023/05/19 10:45:20;;;;;;;11.27;6.10;;;;;;;19.36;67.66;101145.75;5559893;32;33788;-56
2023/05/19 10:48:23;;;;;;;7.07;5.82;;;;;;;19.33;68.27;101140.97;5567858;32;33666;-56
2023/05/19 10:51:32;;;;;;;10.45;6.50;;;;;;;19.31;71.87;101137.00;5564229;32;33680;-56
2023/05/19 10:54:46;;;;;;;14.38;7.03;;;;;;;19.41;71.39;101140.19;5562320;32;33233;-56
2023/05/19 10:57:59;;;;;;;6.40;5.72;;;;;;;19.45;69.02;101137.63;5554831;32;33645;-56
2023/05/19 11:01:01;;;;;;;8.00;5.93;;;;;;;19.55;72.39;101136.50;5568364;32;33672;-56
2023/05/19 11:04:12;;;;;;;7.15;6.12;;;;;;;19.52;69.21;101127.03;5567938;31;33422;-56
2023/05/19 11:07:20;;;;;;;10.73;6.25;;;;;;;19.48;67.14;101120.66;5567671;32;33647;-56
2023/05/19 11:10:23;;;;;;;7.18;6.45;;;;;;;19.48;67.25;101120.66;5567516;32;33697;-56
2023/05/19 11:13:26;;;;;;;6.62;5.78;;;;;;;19.59;69.03;101119.19;5567563;32;34304;-56
2023/05/19 11:16:33;;;;;;;6.95;5.37;;;;;;;19.65;67.83;101115.22;5567907;32;34286;-56
2023/05/19 11:19:36;;;;;;;7.60;6.15;;;;;;;19.68;68.62;101114.56;5553072;32;33605;-56
2023/05/19 11:22:38;;;;;;;7.20;5.50;;;;;;;19.82;67.25;101114.38;5568213;32;33717;-56
2023/05/19 11:25:46;;;;;;;12.07;6.10;;;;;;;19.87;67.41;101110.69;5566667;32;33832;-56
2023/05/19 11:28:48;;;;;;;7.37;5.82;;;;;;;19.86;65.32;101115.31;5550279;31;32836;-56
2023/05/19 11:31:51;;;;;;;8.63;5.95;;;;;;;19.86;66.26;101114.50;5548461;32;33255;-56
2023/05/19 11:34:54;;;;;;;6.57;5.55;;;;;;;19.92;66.42;101118.66;5555187;32;33890;-56
2023/05/19 11:37:58;;;;;;;8.65;5.75;;;;;;;19.96;66.69;101114.16;5552767;32;33687;-56
2023/05/19 11:41:02;;;;;;;6.70;5.60;;;;;;;19.97;65.81;101106.78;5548558;32;33736;-56
2023/05/19 11:44:08;;;;;;;7.78;5.15;;;;;;;19.92;64.95;101096.91;5556439;32;33797;-56
2023/05/19 11:47:12;;;;;;;6.93;5.35;;;;;;;19.89;64.50;101102.97;5567284;32;34374;-56
2023/05/19 11:50:15;;;;;;;9.63;5.40;;;;;;;20.03;63.89;101105.50;5561991;32;33676;-56
2023/05/19 11:53:20;;;;;;;8.25;5.18;;;;;;;19.87;65.01;101103.31;5548156;32;34376;-56
2023/05/19 11:56:22;;;;;;;5.87;5.28;;;;;;;19.80;65.73;101104.94;5559199;32;34396;-56
2023/05/19 11:59:32;;;;;;;6.55;4.80;;;;;;;19.77;63.71;101109.13;5567243;32;34248;-56
2023/05/19 12:02:37;;;;;;;8.95;4.82;;;;;;;19.74;65.84;101098.09;5567466;32;33660;-56
2023/05/19 12:05:44;;;;;;;6.20;4.60;;;;;;;19.70;65.23;101101.47;5566674;32;33867;-56
2023/05/19 12:08:50;;;;;;;7.40;4.37;;;;;;;19.71;66.72;101091.37;5567159;32;33656;-56
2023/05/19 12:11:54;;;;;;;7.18;4.78;;;;;;;19.83;67.63;101086.03;5567178;32;33588;-56
2023/05/19 12:14:56;;;;;;;8.30;4.78;;;;;;;19.99;66.19;101080.84;5563710;32;34326;-56
2023/05/19 12:18:01;;;;;;;7.62;5.20;;;;;;;20.17;63.96;101092.47;5557050;32;33331;-56
2023/05/19 12:21:04;;;;;;;16.87;5.75;;;;;;;20.24;64.80;101081.06;5555415;32;34305;-56
2023/05/19 12:24:07;;;;;;;7.68;4.55;;;;;;;20.26;63.32;101076.09;5556900;32;34070;-56
2023/05/19 12:27:13;;;;;;;6.80;4.65;;;;;;;20.22;64.79;101077.87;5552836;32;34214;-56
2023/05/19 12:30:16;;;;;;;6.87;5.00;;;;;;;20.14;64.20;101071.34;5568871;32;34295;-56
2023/05/19 12:33:18;;;;;;;8.80;5.07;;;;;;;20.21;62.84;101066.19;5569326;32;33608;-57
2023/05/19 12:36:24;;;;;;;7.70;4.72;;;;;;;20.32;62.18;101066.59;5569785;32;33229;-57
2023/05/19 12:39:26;;;;;;;9.40;4.87;;;;;;;20.27;61.69;101047.75;5569733;32;33684;-57
2023/05/19 12:42:33;;;;;;;6.10;4.28;;;;;;;20.27;63.46;101043.09;5569716;32;33736;-57
2023/05/19 12:45:37;;;;;;;7.35;4.45;;;;;;;20.29;64.85;101040.81;5561458;32;33614;-57
2023/05/19 12:48:44;;;;;;;5.72;4.03;;;;;;;20.37;65.49;101048.16;5564937;32;34280;-57
2023/05/19 12:51:53;;;;;;;9.23;5.07;;;;;;;20.52;61.55;101044.06;5558034;32;34431;-57
2023/05/19 12:55:06;;;;;;;8.88;4.70;;;;;;;20.59;65.32;101038.91;5569735;32;34391;-57
2023/05/19 12:58:12;;;;;;;9.05;4.45;;;;;;;20.58;64.29;101031.88;5550503;32;33648;-56
2023/05/19 13:01:16;;;;;;;8.13;4.95;;;;;;;20.57;65.97;101043.09;5550212;32;33684;-57
2023/05/19 13:04:19;;;;;;;7.47;4.53;;;;;;;20.62;64.34;101035.50;5550441;32;33282;-57
2023/05/19 13:07:21;;;;;;;10.27;4.50;;;;;;;20.67;62.90;101041.91;5550403;32;33950;-56
2023/05/19 13:10:28;;;;;;;6.75;4.53;;;;;;;20.57;64.08;101040.37;5550532;32;34899;-57
2023/05/19 13:13:31;;;;;;;5.47;4.50;;;;;;;20.45;63.98;101032.88;5550494;32;33696;-57
2023/05/19 13:16:33;;;;;;;7.70;4.82;;;;;;;20.54;63.80;101022.78;5550494;32;33758;-56
2023/05/19 13:19:35;;;;;;;7.25;4.85;;;;;;;20.57;65.34;101015.88;5550235;32;34348;-57
2023/05/19 13:22:38;;;;;;;8.55;4.40;;;;;;;20.61;65.46;101016.78;5550726;32;33640;-56
2023/05/19 13:25:41;;;;;;;9.68;4.78;;;;;;;20.75;64.89;101016.50;5550452;32;33707;-58
2023/05/19 13:28:43;;;;;;;13.30;4.10;;;;;;;20.85;59.21;101021.56;5549924;32;33756;-58
2023/05/19 13:31:45;;;;;;;8.00;4.20;;;;;;;20.84;60.74;101020.75;5562234;32;33642;-58
2023/05/19 13:34:48;;;;;;;7.18;3.87;;;;;;;20.93;63.80;101006.28;5569010;32;34390;-59
2023/05/19 13:37:50;;;;;;;6.85;4.35;;;;;;;21.00;61.65;101009.25;5568522;32;33756;-58
2023/05/19 13:40:53;;;;;;;7.72;4.32;;;;;;;21.13;61.27;100999.97;5568808;32;34050;-59
2023/05/19 13:43:59;;;;;;;6.12;4.30;;;;;;;21.06;63.48;100994.28;5569005;32;33537;-58
2023/05/19 13:47:02;;;;;;;10.88;4.50;;;;;;;21.05;62.18;100995.41;5568843;32;33632;-58
2023/05/19 13:50:05;;;;;;;5.85;4.15;;;;;;;21.05;62.13;101001.62;5569518;32;32805;-58
2023/05/19 13:53:07;;;;;;;11.12;3.97;;;;;;;21.03;62.00;100993.03;5569224;32;33771;-58
2023/05/19 13:56:10;;;;;;;5.10;4.20;;;;;;;21.00;61.78;100992.91;5569460;32;34339;-59
2023/05/19 13:59:12;;;;;;;10.18;4.45;;;;;;;20.85;62.83;100997.03;5569447;32;33791;-58
2023/05/19 14:02:15;;;;;;;8.88;4.45;;;;;;;20.75;65.92;100994.72;5569445;32;33856;-58
2023/05/19 14:05:17;;;;;;;6.30;4.30;;;;;;;20.79;65.36;100988.25;5569192;32;33836;-58
2023/05/19 14:08:19;;;;;;;11.93;4.55;;;;;;;20.79;64.15;100985.53;5569100;32;33801;-58
2023/05/19 14:11:22;;;;;;;8.43;5.05;;;;;;;20.81;62.39;100983.28;5568772;32;33593;-58
2023/05/19 14:14:24;;;;;;;8.13;4.20;;;;;;;20.96;61.44;100981.88;5569154;32;34208;-58
2023/05/19 14:17:27;;;;;;;10.88;5.37;;;;;;;20.95;60.69;100977.53;5569221;32;34325;-59
2023/05/19 14:20:30;;;;;;;5.20;4.07;;;;;;;21.02;62.92;100974.25;5568855;32;33557;-58
2023/05/19 14:23:33;;;;;;;5.85;3.50;;;;;;;21.12;62.98;100974.66;5567956;32;33635;-58
2023/05/19 14:26:35;;;;;;;5.80;4.20;;;;;;;21.23;61.57;100979.69;5568361;32;33863;-58
2023/05/19 14:29:38;;;;;;;9.00;4.90;;;;;;;21.41;60.24;100975.63;5561446;32;34399;-58
2023/05/19 14:32:40;;;;;;;4.62;3.67;;;;;;;21.44;59.68;100974.16;5563734;32;33357;-58
2023/05/19 14:35:42;;;;;;;5.68;4.20;;;;;;;21.38;60.74;100979.03;5549449;32;34892;-58
2023/05/19 14:38:45;;;;;;;6.07;3.75;;;;;;;21.44;59.32;100979.63;5563827;32;33726;-58
2023/05/19 14:41:49;;;;;;;6.80;3.70;;;;;;;21.28;59.20;100974.00;5563315;32;33734;-58
2023/05/19 14:44:51;;;;;;;4.95;3.22;;;;;;;21.20;57.77;100974.91;5568289;32;33730;-59
2023/05/19 14:47:54;;;;;;;4.62;3.70;;;;;;;21.19;58.55;100978.72;5555878;32;33288;-58
2023/05/19 14:50:56;;;;;;;8.82;3.95;;;;;;;21.21;57.60;100962.84;5566048;32;33842;-59
2023/05/19 14:54:00;;;;;;;6.07;3.78;;;;;;;21.30;59.34;100974.47;5569107;32;33844;-59
2023/05/19 14:57:03;;;;;;;6.62;4.10;;;;;;;21.29;58.46;100973.66;5568733;32;33722;-58
2023/05/19 15:00:08;;;;;;;5.95;3.45;;;;;;;21.31;60.37;100970.59;5568756;32;33571;-58
2023/05/19 15:03:11;;;;;;;7.15;3.50;;;;;;;21.23;59.42;100971.50;5568722;32;33327;-58
2023/05/19 15:06:13;;;;;;;12.32;4.00;;;;;;;21.19;58.69;100962.37;5558509;32;34398;-58
2023/05/19 15:09:15;;;;;;;4.37;3.62;;;;;;;21.18;59.47;100968.97;5549371;32;33774;-58
2023/05/19 15:12:18;;;;;;;5.62;4.00;;;;;;;21.15;58.01;100962.25;5568619;32;33567;-59
2023/05/19 15:15:20;;;;;;;4.18;3.50;;;;;;;21.14;58.13;100971.56;5568875;32;33814;-58
2023/05/19 15:18:23;;;;;;;6.82;3.60;;;;;;;21.15;58.42;100962.25;5567775;32;34387;-58
2023/05/19 15:21:25;;;;;;;7.75;3.70;;;;;;;21.14;58.68;100960.66;5568030;32;33631;-58
2023/05/19 15:24:27;;;;;;;7.70;3.78;;;;;;;21.19;56.97;100963.19;5568057;32;34401;-58
